Time;durP1;ratioP1;P1;durP2;ratioP2;P2;SDS_P1;SDS_P2;PMS_P1;PMS_P2;Temp;Humidity;BMP_temperature;BMP_pressure;BME280_temperature;BME280_humidity;BME280_pressure;Samples;Min_cycle;Max_cycle;Signal;HPM_P1;HPM_P2
2023/01/30 00:01:06;;;;;;;21.20;3.22;;;6.30;99.90;;;;;;5035688;28;20108;-91
2023/01/30 00:03:33;;;;;;;16.05;2.83;;;6.30;99.90;;;;;;5036235;28;20132;-92
2023/01/30 00:05:58;;;;;;;19.02;3.13;;;6.30;99.90;;;;;;5036096;28;20021;-92
2023/01/30 00:08:24;;;;;;;22.30;2.83;;;6.20;99.90;;;;;;5053759;28;20043;-91
2023/01/30 00:10:50;;;;;;;17.67;3.08;;;6.30;99.90;;;;;;5036297;28;20025;-89
2023/01/30 00:13:15;;;;;;;17.58;2.42;;;6.20;99.90;;;;;;5036405;28;20032;-91
2023/01/30 00:15:42;;;;;;;24.70;3.22;;;6.20;99.90;;;;;;5036235;28;20100;-89
2023/01/30 00:18:08;;;;;;;18.52;2.70;;;6.20;99.90;;;;;;5036383;28;20037;-89
2023/01/30 00:20:34;;;;;;;20.30;2.72;;;6.10;99.90;;;;;;5036314;28;20120;-91
2023/01/30 00:22:59;;;;;;;16.05;2.83;;;6.10;99.90;;;;;;5053583;28;20044;-90
2023/01/30 00:25:26;;;;;;;21.75;3.30;;;6.10;99.90;;;;;;5036170;28;20029;-90
2023/01/30 00:27:52;;;;;;;25.90;3.13;;;6.00;99.90;;;;;;5035824;28;20032;-89
2023/01/30 00:30:17;;;;;;;31.45;3.42;;;6.00;99.90;;;;;;5035890;28;20071;-91
2023/01/30 00:32:43;;;;;;;15.77;1.98;;;6.00;99.90;;;;;;5035853;28;20105;-92
2023/01/30 00:35:09;;;;;;;18.42;2.97;;;5.90;99.90;;;;;;5035949;28;20171;-91
2023/01/30 00:37:34;;;;;;;15.27;2.70;;;5.90;99.90;;;;;;5035642;28;20036;-92
2023/01/30 00:40:00;;;;;;;30.75;4.43;;;5.90;99.90;;;;;;5035981;28;20026;-91
2023/01/30 00:47:56;;;;;;;18.70;3.20;;;5.90;99.90;;;;;;5057554;28;20048;-90
2023/01/30 00:50:22;;;;;;;20.02;3.22;;;5.90;99.90;;;;;;5039787;28;20029;-89
2023/01/30 00:52:47;;;;;;;20.55;3.17;;;5.90;99.90;;;;;;5039724;28;20043;-89
2023/01/30 00:55:14;;;;;;;20.75;2.72;;;5.80;99.90;;;;;;5039770;28;20078;-89
2023/01/30 00:57:40;;;;;;;19.08;2.90;;;5.80;99.90;;;;;;5039818;28;20025;-91
2023/01/30 01:00:08;;;;;;;27.17;3.08;;;5.80;99.90;;;;;;5039316;28;20045;-90
2023/01/30 01:02:34;;;;;;;21.90;2.67;;;5.80;99.90;;;;;;5057090;28;20033;-89
2023/01/30 01:04:59;;;;;;;17.85;2.20;;;5.80;99.90;;;;;;5039459;28;20025;-90
2023/01/30 01:07:25;;;;;;;14.10;2.42;;;5.80;99.90;;;;;;5039132;28;20047;-89
2023/01/30 01:09:51;;;;;;;19.67;3.72;;;5.80;99.90;;;;;;5056793;28;20029;-92
2023/01/30 01:12:16;;;;;;;18.75;2.42;;;5.80;99.90;;;;;;5039131;28;20071;-92
2023/01/30 01:14:45;;;;;;;22.67;3.00;;;5.80;99.90;;;;;;5039242;28;20017;-89
2023/01/30 01:17:10;;;;;;;25.58;2.65;;;5.80;99.90;;;;;;5039175;28;20025;-91
2023/01/30 01:19:36;;;;;;;14.40;2.03;;;5.80;99.90;;;;;;5057174;28;20028;-92
2023/01/30 01:22:02;;;;;;;24.42;3.75;;;5.80;99.90;;;;;;5039810;28;20028;-92
2023/01/30 01:24:30;;;;;;;17.00;2.47;;;5.70;99.90;;;;;;5039177;28;20029;-91
2023/01/30 01:26:56;;;;;;;19.65;3.20;;;5.60;99.90;;;;;;5039356;28;20064;-91
2023/01/30 01:29:21;;;;;;;19.27;3.15;;;5.60;99.90;;;;;;5039194;28;20462;-92
2023/01/30 01:31:47;;;;;;;18.02;2.10;;;5.60;99.90;;;;;;5038860;28;20474;-91
2023/01/30 01:34:13;;;;;;;15.70;1.95;;;5.50;99.90;;;;;;5039218;28;20028;-91
2023/01/30 01:36:38;;;;;;;22.48;2.78;;;5.50;99.90;;;;;;5042180;28;20501;-90
2023/01/30 01:39:04;;;;;;;16.70;1.85;;;5.40;99.90;;;;;;5042613;28;20025;-89
2023/01/30 01:41:30;;;;;;;14.85;1.98;;;5.40;99.90;;;;;;5041283;28;20021;-91
2023/01/30 01:44:08;;;;;;;15.73;2.75;;;5.40;99.90;;;;;;5041360;28;20484;-91
2023/01/30 01:46:56;;;;;;;21.73;2.60;;;5.40;99.90;;;;;;5039890;28;20113;-91
2023/01/30 01:49:24;;;;;;;11.50;2.42;;;5.30;99.90;;;;;;5038462;28;20048;-91
2023/01/30 01:52:02;;;;;;;15.55;2.35;;;5.30;99.90;;;;;;5039030;28;20024;-91
2023/01/30 01:54:36;;;;;;;16.88;2.85;;;5.30;99.90;;;;;;5038873;28;20025;-91
2023/01/30 01:57:07;;;;;;;9.63;1.77;;;5.20;99.90;;;;;;5038389;28;20102;-91
2023/01/30 02:00:10;;;;;;;12.38;2.05;;;5.20;99.90;;;;;;5038486;28;20190;-91
2023/01/30 02:02:37;;;;;;;15.73;2.47;;;5.20;99.90;;;;;;4940374;29;20067;-91
2023/01/30 02:05:05;;;;;;;26.77;2.22;;;5.20;99.90;;;;;;4939996;29;20106;-92
2023/01/30 02:07:56;;;;;;;18.13;3.15;;;5.20;99.90;;;;;;4939983;29;20039;-91
2023/01/30 02:10:38;;;;;;;16.20;2.42;;;5.20;99.90;;;;;;4934792;29;20035;-91
2023/01/30 02:13:04;;;;;;;19.35;2.20;;;5.20;99.90;;;;;;4939973;29;20023;-91
2023/01/30 02:15:30;;;;;;;19.83;2.50;;;5.20;99.90;;;;;;4955627;29;20031;-91
2023/01/30 02:17:55;;;;;;;16.50;2.75;;;5.20;99.90;;;;;;4939632;29;20083;-91
2023/01/30 02:20:40;;;;;;;14.55;1.75;;;5.20;99.90;;;;;;4940762;29;20027;-90
2023/01/30 02:23:39;;;;;;;19.38;2.15;;;5.20;99.90;;;;;;4946855;29;20039;-91
2023/01/30 02:26:23;;;;;;;10.05;1.77;;;5.20;99.90;;;;;;4939853;29;20031;-91
2023/01/30 02:29:33;;;;;;;19.65;2.05;;;5.20;99.90;;;;;;4939643;29;20464;-92
2023/01/30 02:32:04;;;;;;;23.10;2.45;;;5.20;99.90;;;;;;4917158;29;20184;-91
2023/01/30 02:34:43;;;;;;;17.75;2.38;;;5.20;99.90;;;;;;4901696;29;20143;-91
2023/01/30 02:37:34;;;;;;;18.02;2.42;;;5.20;99.90;;;;;;4958222;28;20162;-91
2023/01/30 02:40:12;;;;;;;18.95;3.78;;;5.20;99.90;;;;;;4974980;28;20041;-92
2023/01/30 02:43:08;;;;;;;27.88;3.42;;;5.20;99.90;;;;;;4977759;28;20023;-91
2023/01/30 02:45:36;;;;;;;23.80;2.33;;;5.20;99.90;;;;;;4978135;28;20053;-91
2023/01/30 02:48:04;;;;;;;17.90;1.83;;;5.20;99.90;;;;;;4977186;28;20059;-91
2023/01/30 02:51:00;;;;;;;21.33;2.85;;;5.20;99.90;;;;;;4977833;28;20128;-91
2023/01/30 02:53:30;;;;;;;19.58;2.60;;;5.20;99.90;;;;;;4969790;28;20049;-91
2023/01/30 02:55:56;;;;;;;17.85;2.28;;;5.20;99.90;;;;;;4977299;28;20045;-91
2023/01/30 02:58:25;;;;;;;15.40;2.22;;;5.20;99.90;;;;;;4977254;28;20038;-88
2023/01/30 03:01:39;;;;;;;19.08;3.42;;;5.20;99.90;;;;;;4977784;28;20108;-90
2023/01/30 03:04:26;;;;;;;17.10;3.03;;;5.20;99.90;;;;;;4977216;28;20022;-92
2023/01/30 03:06:55;;;;;;;22.20;2.28;;;5.20;99.90;;;;;;5033221;28;20033;-91
2023/01/30 03:09:26;;;;;;;20.70;2.13;;;5.20;99.90;;;;;;5036392;28;20025;-91
2023/01/30 03:12:31;;;;;;;17.13;2.28;;;5.20;99.90;;;;;;5036885;28;20025;-92
2023/01/30 03:15:24;;;;;;;24.65;3.05;;;5.20;99.90;;;;;;4954396;29;20023;-92
2023/01/30 03:17:50;;;;;;;13.05;1.67;;;5.20;99.90;;;;;;4900474;29;20126;-89
2023/01/30 03:20:18;;;;;;;18.40;2.28;;;5.30;99.90;;;;;;4900827;29;20482;-90
2023/01/30 03:22:44;;;;;;;14.63;1.85;;;5.20;99.90;;;;;;4900698;29;20040;-90
2023/01/30 03:25:16;;;;;;;21.27;2.17;;;5.30;99.90;;;;;;4904928;29;20030;-91
2023/01/30 03:27:42;;;;;;;16.60;2.40;;;5.30;99.90;;;;;;4904011;29;20036;-90
2023/01/30 03:30:09;;;;;;;20.02;2.47;;;5.30;99.90;;;;;;4900887;29;20103;-91
2023/01/30 03:32:34;;;;;;;13.55;2.05;;;5.30;99.90;;;;;;4900066;29;20096;-91
2023/01/30 03:35:00;;;;;;;16.48;2.72;;;5.30;99.90;;;;;;4900417;29;20050;-90
2023/01/30 03:37:26;;;;;;;22.05;3.28;;;5.30;99.90;;;;;;4900160;29;20076;-90
2023/01/30 03:39:52;;;;;;;20.77;2.97;;;5.30;99.90;;;;;;4900358;29;20135;-92
2023/01/30 03:42:18;;;;;;;25.77;3.30;;;5.30;99.90;;;;;;4900212;29;20123;-91
2023/01/30 03:44:43;;;;;;;22.70;2.92;;;5.40;99.90;;;;;;4908042;28;20032;-89
2023/01/30 03:47:09;;;;;;;22.20;2.65;;;5.40;99.90;;;;;;4976270;28;20038;-90
2023/01/30 03:49:34;;;;;;;18.85;2.33;;;5.40;99.90;;;;;;4976587;28;20031;-90
2023/01/30 03:52:00;;;;;;;16.02;3.33;;;5.40;99.90;;;;;;4992977;28;20045;-89
2023/01/30 03:54:26;;;;;;;21.33;2.65;;;5.40;99.90;;;;;;4998731;28;20040;-90
2023/01/30 03:56:51;;;;;;;22.88;2.35;;;5.40;99.90;;;;;;5036132;28;20032;-91
2023/01/30 03:59:17;;;;;;;15.43;1.92;;;5.40;99.90;;;;;;5036044;28;20055;-92
2023/01/30 04:01:43;;;;;;;16.90;1.88;;;5.50;99.90;;;;;;5036329;28;20023;-90
2023/01/30 04:04:08;;;;;;;21.13;2.88;;;5.50;99.90;;;;;;5046905;28;20025;-90
2023/01/30 04:06:34;;;;;;;21.92;3.15;;;5.50;99.90;;;;;;5036375;28;20079;-91
2023/01/30 04:08:59;;;;;;;22.20;2.95;;;5.50;99.90;;;;;;5036118;28;20051;-90
2023/01/30 04:11:25;;;;;;;25.00;2.50;;;5.50;99.90;;;;;;5036081;28;20021;-91
2023/01/30 04:13:51;;;;;;;14.50;2.53;;;5.50;99.90;;;;;;5036166;28;20029;-91
2023/01/30 04:16:19;;;;;;;31.60;3.45;;;5.50;99.90;;;;;;5035644;28;20024;-92
2023/01/30 04:18:44;;;;;;;19.30;2.40;;;5.50;99.90;;;;;;5035461;28;20029;-90
2023/01/30 04:21:10;;;;;;;13.75;2.40;;;5.60;99.90;;;;;;5035830;28;20601;-90
2023/01/30 04:23:36;;;;;;;12.27;2.20;;;5.50;99.90;;;;;;5035782;28;20475;-90
2023/01/30 04:26:02;;;;;;;22.05;2.25;;;5.60;99.90;;;;;;5035988;28;20025;-91
2023/01/30 04:28:28;;;;;;;15.82;2.22;;;5.60;99.90;;;;;;5035752;28;20099;-90
2023/01/30 04:30:54;;;;;;;26.58;2.75;;;5.60;99.90;;;;;;5053295;28;20413;-91
2023/01/30 04:33:19;;;;;;;6.95;1.42;;;5.60;99.90;;;;;;5035527;28;20083;-91
2023/01/30 04:35:57;;;;;;;10.05;1.48;;;5.60;99.90;;;;;;5035694;28;20051;-91
2023/01/30 04:38:23;;;;;;;18.27;2.42;;;5.60;99.90;;;;;;5035522;28;20021;-90
2023/01/30 04:40:54;;;;;;;13.90;2.30;;;5.60;99.90;;;;;;5038013;28;20043;-90
2023/01/30 04:43:20;;;;;;;19.05;2.53;;;5.60;99.90;;;;;;5038609;28;20109;-90
2023/01/30 04:45:48;;;;;;;13.75;2.08;;;5.60;99.90;;;;;;5037407;28;20037;-90
2023/01/30 04:48:14;;;;;;;22.10;2.63;;;5.60;99.90;;;;;;5055107;28;20029;-90
2023/01/30 04:50:41;;;;;;;23.58;2.83;;;5.60;99.90;;;;;;5036409;28;20021;-91
2023/01/30 04:53:07;;;;;;;14.05;2.65;;;5.60;99.90;;;;;;5035999;28;20032;-91
2023/01/30 04:55:33;;;;;;;26.17;2.40;;;5.60;99.90;;;;;;5036057;28;20495;-92
2023/01/30 04:57:59;;;;;;;13.70;2.30;;;5.60;99.90;;;;;;5035878;28;20502;-91
2023/01/30 05:00:25;;;;;;;11.30;2.67;;;5.60;99.90;;;;;;5036135;28;20506;-92
2023/01/30 05:02:52;;;;;;;13.63;2.72;;;5.60;99.90;;;;;;5035768;28;20128;-91
2023/01/30 05:05:17;;;;;;;19.83;2.63;;;5.60;99.90;;;;;;5035675;28;20025;-92
2023/01/30 05:07:43;;;;;;;15.93;2.25;;;5.60;99.90;;;;;;5035565;28;20516;-91
2023/01/30 05:10:10;;;;;;;21.10;2.63;;;5.60;99.90;;;;;;5036719;28;20132;-91
2023/01/30 05:12:35;;;;;;;27.52;2.75;;;5.60;99.90;;;;;;5035662;28;20493;-91
2023/01/30 05:15:01;;;;;;;19.40;2.47;;;5.60;99.90;;;;;;5035320;28;20036;-92
2023/01/30 05:17:27;;;;;;;20.17;2.53;;;5.60;99.90;;;;;;5035178;28;20075;-91
2023/01/30 05:19:52;;;;;;;20.13;3.05;;;5.60;99.90;;;;;;5035525;28;20088;-92
2023/01/30 05:22:18;;;;;;;16.30;2.30;;;5.60;99.90;;;;;;5035368;28;20025;-91
2023/01/30 05:24:43;;;;;;;19.20;2.15;;;5.60;99.90;;;;;;5035303;28;20100;-91
2023/01/30 05:27:09;;;;;;;21.52;2.25;;;5.60;99.90;;;;;;5034833;28;20128;-90
2023/01/30 05:29:35;;;;;;;19.73;3.28;;;5.60;99.90;;;;;;5035570;28;20064;-91
2023/01/30 05:32:02;;;;;;;16.52;2.55;;;5.60;99.90;;;;;;5055308;28;20166;-92
2023/01/30 05:34:27;;;;;;;15.63;1.95;;;5.60;99.90;;;;;;5038835;28;20044;-91
2023/01/30 05:36:53;;;;;;;18.85;1.90;;;5.60;99.90;;;;;;5056477;28;20025;-92
2023/01/30 05:39:19;;;;;;;22.65;2.95;;;5.60;99.90;;;;;;5038855;28;20032;-93
2023/01/30 05:41:44;;;;;;;18.48;2.67;;;5.60;99.90;;;;;;5038555;28;20032;-91
2023/01/30 05:44:10;;;;;;;22.08;2.90;;;5.60;99.90;;;;;;5038972;28;20025;-92
2023/01/30 05:46:36;;;;;;;15.35;2.63;;;5.60;99.90;;;;;;5067117;28;20025;-91
2023/01/30 05:49:03;;;;;;;25.00;3.00;;;5.60;99.90;;;;;;5039270;28;20028;-92
2023/01/30 05:51:29;;;;;;;13.95;2.22;;;5.60;99.90;;;;;;5038786;28;20179;-91
2023/01/30 05:53:55;;;;;;;21.38;2.65;;;5.60;99.90;;;;;;5038658;28;20037;-91
2023/01/30 05:56:21;;;;;;;16.55;3.05;;;5.60;99.90;;;;;;5038678;28;20027;-91
2023/01/30 05:58:54;;;;;;;24.42;4.15;;;5.60;99.90;;;;;;5038340;28;20445;-91
2023/01/30 06:01:20;;;;;;;21.73;2.70;;;5.60;99.90;;;;;;5038196;28;20387;-91
2023/01/30 06:03:46;;;;;;;16.23;2.65;;;5.60;99.90;;;;;;5038240;28;20029;-91
2023/01/30 06:06:12;;;;;;;21.17;3.33;;;5.60;99.90;;;;;;5038611;28;20048;-90
2023/01/30 06:08:38;;;;;;;20.45;3.35;;;5.60;99.90;;;;;;5038229;28;20086;-93
2023/01/30 06:11:07;;;;;;;22.65;3.38;;;5.60;99.90;;;;;;5037793;28;20466;-92
2023/01/30 06:13:33;;;;;;;23.02;3.53;;;5.60;99.90;;;;;;5038241;28;20025;-92
2023/01/30 06:15:59;;;;;;;20.23;2.70;;;5.60;99.90;;;;;;5038170;28;20040;-90
2023/01/30 06:18:24;;;;;;;26.00;3.67;;;5.60;99.90;;;;;;5038053;28;20021;-91
2023/01/30 06:20:51;;;;;;;24.90;2.67;;;5.60;99.90;;;;;;5037870;28;20367;-91
2023/01/30 06:23:17;;;;;;;17.92;2.67;;;5.60;99.90;;;;;;5037862;28;20057;-91
2023/01/30 06:25:44;;;;;;;23.98;2.60;;;5.60;99.90;;;;;;5037641;28;20044;-89
2023/01/30 06:28:10;;;;;;;15.25;2.20;;;5.60;99.90;;;;;;5037683;28;20123;-91
2023/01/30 06:30:36;;;;;;;17.58;2.28;;;5.60;99.90;;;;;;5038201;28;20032;-91
2023/01/30 06:33:01;;;;;;;16.60;2.67;;;5.60;99.90;;;;;;5037820;28;20025;-90
2023/01/30 06:35:27;;;;;;;16.35;1.65;;;5.60;99.90;;;;;;5037954;28;20052;-90
2023/01/30 06:37:53;;;;;;;17.38;2.88;;;5.60;99.90;;;;;;5037648;28;20490;-92
2023/01/30 06:40:18;;;;;;;9.90;1.58;;;5.60;99.90;;;;;;5037153;28;20025;-91
2023/01/30 06:42:45;;;;;;;18.55;2.22;;;5.60;99.90;;;;;;5036278;28;20390;-91
2023/01/30 06:45:13;;;;;;;14.93;3.17;;;5.50;99.90;;;;;;5055456;28;20025;-94
2023/01/30 06:47:50;;;;;;;13.30;2.25;;;5.60;99.90;;;;;;5037299;28;20037;-92
2023/01/30 06:50:18;;;;;;;19.58;2.90;;;5.50;99.90;;;;;;5037779;28;20025;-92
2023/01/30 06:52:48;;;;;;;24.13;3.28;;;5.50;99.90;;;;;;5037726;28;20036;-92
2023/01/30 06:55:17;;;;;;;21.17;2.28;;;5.50;99.90;;;;;;5038759;28;20017;-91
2023/01/30 06:57:43;;;;;;;22.27;3.92;;;5.50;99.90;;;;;;5037415;28;20082;-92
2023/01/30 07:00:13;;;;;;;11.85;1.95;;;5.50;99.90;;;;;;5037251;28;20470;-93
2023/01/30 07:02:38;;;;;;;19.05;2.17;;;5.50;99.90;;;;;;5035625;28;20106;-92
2023/01/30 07:05:06;;;;;;;16.35;2.55;;;5.50;99.90;;;;;;5053519;28;20076;-90
2023/01/30 07:07:32;;;;;;;22.88;3.40;;;5.50;99.90;;;;;;5036439;28;20033;-91
2023/01/30 07:09:59;;;;;;;25.20;3.20;;;5.50;99.90;;;;;;5036322;28;20017;-91
2023/01/30 07:12:25;;;;;;;17.83;2.85;;;5.50;99.90;;;;;;5035257;28;20053;-93
2023/01/30 07:14:52;;;;;;;19.08;3.53;;;5.50;99.90;;;;;;5036590;28;20462;-90
2023/01/30 07:17:18;;;;;;;22.52;3.03;;;5.50;99.90;;;;;;5036093;28;20028;-91
2023/01/30 07:19:45;;;;;;;18.48;2.70;;;5.50;99.90;;;;;;5035968;28;20017;-92
2023/01/30 07:22:11;;;;;;;23.67;3.05;;;5.50;99.90;;;;;;5037108;28;20383;-91
2023/01/30 07:24:38;;;;;;;27.25;3.10;;;5.50;99.90;;;;;;5036448;28;20024;-92
2023/01/30 07:27:06;;;;;;;25.17;2.85;;;5.50;99.90;;;;;;5045415;28;20059;-92
2023/01/30 07:29:31;;;;;;;26.67;2.80;;;5.40;99.90;;;;;;5036922;28;20052;-91
2023/01/30 07:31:57;;;;;;;19.83;2.85;;;5.40;99.90;;;;;;5036802;28;20494;-92
2023/01/30 07:34:23;;;;;;;22.83;2.97;;;5.40;99.90;;;;;;5037051;28;20070;-91
2023/01/30 07:36:49;;;;;;;15.02;2.42;;;5.40;99.90;;;;;;5037995;28;20013;-93
2023/01/30 07:39:14;;;;;;;17.10;2.40;;;5.40;99.90;;;;;;5037486;28;20028;-93
2023/01/30 07:41:40;;;;;;;19.58;2.47;;;5.40;99.90;;;;;;5039050;28;20028;-92
2023/01/30 07:44:06;;;;;;;26.92;4.13;;;5.40;99.90;;;;;;5039406;28;20037;-91
2023/01/30 07:46:33;;;;;;;19.60;2.70;;;5.40;99.90;;;;;;5039516;28;20017;-91
2023/01/30 07:49:04;;;;;;;18.35;2.85;;;5.40;99.90;;;;;;5039838;28;20033;-92
2023/01/30 07:51:30;;;;;;;20.15;3.15;;;5.40;99.90;;;;;;5039001;28;20111;-92
2023/01/30 07:53:55;;;;;;;18.65;2.28;;;5.40;99.90;;;;;;5038019;28;20046;-93
2023/01/30 07:56:21;;;;;;;25.77;3.55;;;5.40;99.90;;;;;;5036165;28;20370;-92
2023/01/30 07:58:47;;;;;;;17.88;2.65;;;5.40;99.90;;;;;;5037331;28;20101;-93
2023/01/30 08:01:14;;;;;;;25.73;3.78;;;5.40;99.90;;;;;;5037507;28;20025;-93
2023/01/30 08:03:39;;;;;;;21.05;2.83;;;5.40;99.90;;;;;;5037952;28;20478;-93
2023/01/30 08:06:06;;;;;;;15.88;2.30;;;5.40;99.90;;;;;;5037548;28;20029;-93
2023/01/30 08:08:31;;;;;;;15.95;2.05;;;5.40;99.90;;;;;;5036646;28;20041;-93
2023/01/30 08:10:57;;;;;;;20.25;3.05;;;5.40;99.90;;;;;;5037510;28;20043;-92
2023/01/30 08:13:22;;;;;;;21.52;3.15;;;5.40;99.90;;;;;;5053874;28;20025;-91
2023/01/30 08:15:49;;;;;;;21.55;2.72;;;5.40;99.90;;;;;;5036049;28;20029;-91
2023/01/30 08:18:14;;;;;;;26.02;2.17;;;5.30;99.90;;;;;;5036142;28;20028;-92
2023/01/30 08:20:41;;;;;;;20.70;2.95;;;5.30;99.90;;;;;;5036335;28;20028;-91
2023/01/30 08:23:07;;;;;;;28.52;3.15;;;5.30;99.90;;;;;;5054163;28;20048;-93
2023/01/30 08:25:34;;;;;;;22.75;2.47;;;5.30;99.90;;;;;;5036540;28;20470;-92
2023/01/30 08:28:00;;;;;;;20.58;2.85;;;5.30;99.90;;;;;;5036739;28;20032;-92
2023/01/30 08:30:29;;;;;;;24.42;2.67;;;5.40;99.90;;;;;;5038069;28;20078;-93
2023/01/30 08:32:56;;;;;;;19.33;2.83;;;5.30;99.90;;;;;;5037370;28;20048;-92
2023/01/30 08:35:22;;;;;;;15.27;2.65;;;5.40;99.90;;;;;;5036400;28;20021;-92
2023/01/30 08:37:48;;;;;;;21.75;2.50;;;5.40;99.90;;;;;;5036100;28;20496;-93
2023/01/30 08:40:14;;;;;;;19.83;3.15;;;5.40;99.90;;;;;;5036134;28;20116;-93
2023/01/30 08:42:42;;;;;;;25.27;3.03;;;5.40;99.90;;;;;;5035940;28;20029;-93
2023/01/30 08:45:08;;;;;;;30.77;3.47;;;5.40;99.90;;;;;;5035574;28;20036;-93
2023/01/30 08:47:34;;;;;;;16.23;2.08;;;5.40;99.90;;;;;;5035733;28;20033;-93
2023/01/30 08:50:00;;;;;;;25.65;2.83;;;5.40;99.90;;;;;;5029310;28;20100;-93
2023/01/30 08:52:26;;;;;;;17.05;3.25;;;5.40;99.90;;;;;;5034834;28;20478;-94
2023/01/30 08:54:52;;;;;;;19.30;2.55;;;5.40;99.90;;;;;;5035220;28;20074;-94
2023/01/30 08:57:18;;;;;;;23.00;3.30;;;5.40;99.90;;;;;;5034043;28;20533;-93
2023/01/30 08:59:44;;;;;;;14.80;2.80;;;5.40;99.90;;;;;;5034934;28;20041;-94
2023/01/30 09:02:12;;;;;;;18.67;4.03;;;5.40;99.90;;;;;;5035634;28;20482;-92
2023/01/30 09:04:37;;;;;;;16.75;1.70;;;5.40;99.90;;;;;;5037417;28;20060;-94
2023/01/30 09:07:03;;;;;;;18.83;2.92;;;5.40;99.90;;;;;;5044503;28;20032;-93
2023/01/30 09:09:29;;;;;;;19.13;3.22;;;5.40;99.90;;;;;;5039380;28;20033;-93
2023/01/30 09:11:55;;;;;;;22.90;2.65;;;5.50;99.90;;;;;;5039290;28;20052;-94
2023/01/30 09:14:21;;;;;;;22.08;3.20;;;5.50;99.90;;;;;;5039236;28;20107;-93
2023/01/30 09:16:54;;;;;;;24.38;3.00;;;5.50;99.90;;;;;;5030492;28;20493;-92
2023/01/30 09:19:21;;;;;;;28.90;5.20;;;5.50;99.90;;;;;;5041502;28;20021;-92
2023/01/30 09:21:48;;;;;;;19.45;3.53;;;5.60;99.90;;;;;;5018391;28;20035;-92
2023/01/30 09:24:14;;;;;;;21.92;2.97;;;5.60;99.90;;;;;;5018814;28;20036;-92
2023/01/30 09:26:43;;;;;;;28.45;4.32;;;5.60;99.90;;;;;;5036643;28;20025;-93
2023/01/30 09:29:13;;;;;;;21.77;2.55;;;5.60;99.90;;;;;;5037498;28;20455;-94
2023/01/30 09:31:39;;;;;;;26.40;3.30;;;5.70;99.90;;;;;;5038244;28;20482;-92
2023/01/30 09:34:05;;;;;;;21.63;2.90;;;5.70;99.90;;;;;;5039822;28;20031;-91
2023/01/30 09:36:30;;;;;;;20.65;3.83;;;5.70;99.90;;;;;;5038525;28;20466;-92
2023/01/30 09:38:56;;;;;;;24.73;3.88;;;5.70;99.90;;;;;;5056198;28;20029;-91
2023/01/30 09:41:37;;;;;;;20.52;3.63;;;5.80;99.90;;;;;;5038601;28;20025;-92
2023/01/30 09:44:05;;;;;;;31.70;4.15;;;5.80;99.90;;;;;;5037332;28;20029;-92
2023/01/30 09:46:47;;;;;;;32.72;4.00;;;5.90;99.90;;;;;;5035407;28;20253;-92
2023/01/30 09:49:31;;;;;;;22.77;3.17;;;6.00;99.90;;;;;;5035818;28;20394;-91
2023/01/30 09:52:18;;;;;;;28.63;4.13;;;6.00;99.90;;;;;;5036165;28;20112;-92
2023/01/30 09:54:44;;;;;;;29.10;3.60;;;6.10;99.90;;;;;;5037096;28;20032;-92
2023/01/30 09:57:24;;;;;;;20.83;3.58;;;6.10;99.90;;;;;;5034973;28;20021;-90
2023/01/30 10:00:11;;;;;;;18.73;3.00;;;6.20;99.90;;;;;;5034849;28;20136;-91
2023/01/30 10:03:01;;;;;;;27.35;3.28;;;6.40;99.90;;;;;;5021225;28;20021;-91
2023/01/30 10:05:37;;;;;;;16.07;2.73;;;6.50;99.90;;;;;;5036128;28;20470;-93
2023/01/30 10:08:21;;;;;;;25.50;3.20;;;6.60;99.90;;;;;;5035697;28;20048;-92
2023/01/30 10:10:52;;;;;;;19.83;3.35;;;6.70;99.90;;;;;;5035545;28;20437;-93
2023/01/30 10:13:24;;;;;;;23.10;3.33;;;6.70;99.90;;;;;;5037722;28;20041;-92
2023/01/30 10:15:52;;;;;;;22.90;4.03;;;6.60;99.90;;;;;;5037224;28;20524;-92
2023/01/30 10:18:47;;;;;;;21.85;3.15;;;6.60;99.90;;;;;;5037147;28;20429;-91
2023/01/30 10:21:41;;;;;;;25.52;4.68;;;6.60;99.90;;;;;;5035886;28;20082;-92
2023/01/30 10:24:17;;;;;;;22.95;3.47;;;6.70;99.90;;;;;;5035230;28;20060;-92
2023/01/30 10:26:43;;;;;;;23.58;3.13;;;6.80;99.90;;;;;;5034880;28;20025;-92
2023/01/30 10:29:27;;;;;;;29.05;4.05;;;6.90;99.90;;;;;;5037626;28;20033;-90
2023/01/30 10:32:30;;;;;;;38.13;4.15;;;7.00;99.90;;;;;;5038032;28;20024;-92
2023/01/30 10:35:14;;;;;;;32.25;4.53;;;7.10;99.90;;;;;;5039825;28;20028;-92
2023/01/30 10:37:52;;;;;;;22.50;3.75;;;7.30;99.90;;;;;;5057181;28;20076;-93
2023/01/30 10:40:30;;;;;;;20.27;3.75;;;7.50;99.90;;;;;;5038802;28;20116;-93
2023/01/30 10:43:10;;;;;;;30.58;4.18;;;7.70;99.90;;;;;;5039988;28;20056;-93
2023/01/30 10:45:59;;;;;;;19.90;4.95;;;7.80;99.90;;;;;;5044407;28;20474;-92
2023/01/30 10:48:50;;;;;;;24.52;4.18;;;8.00;99.90;;;;;;5038019;28;20044;-92
2023/01/30 10:51:21;;;;;;;;;;;8.10;99.90;;;;;;5037896;28;20025;-93
2023/01/30 10:54:12;;;;;;;26.25;3.17;;;8.10;99.90;;;;;;5034794;28;19958;-94
2023/01/30 10:57:02;;;;;;;27.73;3.40;;;8.10;99.90;;;;;;4936037;29;20122;-91
2023/01/30 10:59:27;;;;;;;18.33;3.17;;;8.10;99.90;;;;;;4937396;29;20063;-92
2023/01/30 11:02:23;;;;;;;28.50;4.72;;;8.30;99.90;;;;;;4938036;29;20114;-94
2023/01/30 11:05:26;;;;;;;26.45;3.15;;;8.50;99.90;;;;;;4935428;29;20086;-93
2023/01/30 11:07:52;;;;;;;27.15;4.40;;;8.70;99.90;;;;;;4856785;29;20050;-95
2023/01/30 11:10:26;;;;;;;19.95;3.50;;;9.00;99.90;;;;;;4827409;29;20042;-93
2023/01/30 11:13:09;;;;;;;15.48;2.78;;;9.20;99.90;;;;;;4829717;29;20030;-93
2023/01/30 11:15:39;;;;;;;15.68;2.65;;;9.40;99.90;;;;;;4856679;29;20129;-94
2023/01/30 11:18:06;;;;;;;29.08;4.03;;;9.70;99.90;;;;;;4833715;29;20042;-93
2023/01/30 11:20:39;;;;;;;19.80;3.90;;;10.00;99.90;;;;;;4834080;29;20052;-94
2023/01/30 11:23:22;;;;;;;20.15;4.05;;;10.20;99.90;;;;;;4852280;29;20680;-92
2023/01/30 11:25:50;;;;;;;26.60;2.63;;;10.30;99.90;;;;;;4852303;29;20531;-92
2023/01/30 11:28:18;;;;;;;21.38;2.75;;;10.40;99.90;;;;;;4843050;29;20042;-90
2023/01/30 11:30:52;;;;;;;34.25;6.85;;;10.30;99.90;;;;;;4843215;29;20109;-92
2023/01/30 11:33:20;;;;;;;24.92;3.55;;;10.10;99.90;;;;;;4863760;29;20039;-91
2023/01/30 11:35:54;;;;;;;17.30;2.50;;;10.00;99.90;;;;;;4927442;29;20548;-92
2023/01/30 11:38:26;;;;;;;24.88;4.20;;;10.00;99.90;;;;;;4915796;29;20051;-93
2023/01/30 11:41:06;;;;;;;30.77;4.28;;;10.00;99.90;;;;;;4936247;28;20060;-92
2023/01/30 11:43:33;;;;;;;24.40;3.85;;;10.00;99.90;;;;;;5032811;28;20127;-93
2023/01/30 11:46:00;;;;;;;26.83;3.95;;;10.10;99.90;;;;;;5035026;28;20486;-92
2023/01/30 11:48:29;;;;;;;23.08;3.47;;;10.10;99.90;;;;;;5036494;28;20041;-94
2023/01/30 11:51:04;;;;;;;27.98;3.67;;;10.20;99.90;;;;;;5036644;28;20017;-91
2023/01/30 11:53:44;;;;;;;26.77;4.13;;;10.20;99.90;;;;;;5036407;28;20478;-92
2023/01/30 11:56:15;;;;;;;;;;;10.20;99.90;;;;;;5036004;28;20029;-91
2023/01/30 11:58:45;;;;;;;21.38;3.40;;;10.20;99.90;;;;;;5035136;28;19934;-92
2023/01/30 12:01:12;;;;;;;18.87;3.37;;;10.20;99.90;;;;;;5034787;28;20443;-91
2023/01/30 12:03:48;;;;;;;24.30;4.13;;;10.20;99.90;;;;;;5035326;28;20497;-92
2023/01/30 12:06:28;;;;;;;16.75;2.83;;;10.10;99.90;;;;;;5035219;28;20033;-93
2023/01/30 12:08:54;;;;;;;18.02;2.95;;;10.10;99.90;;;;;;5032803;28;20029;-92
2023/01/30 12:11:46;;;;;;;23.20;3.25;;;10.10;99.90;;;;;;5048164;28;20037;-91
2023/01/30 12:14:42;;;;;;;21.17;3.72;;;10.20;99.90;;;;;;5011626;28;20631;-93
2023/01/30 12:17:25;;;;;;;23.23;5.03;;;10.40;99.90;;;;;;5037088;28;20376;-91
2023/01/30 12:20:12;;;;;;;23.23;4.10;;;10.70;99.90;;;;;;5024519;28;20035;-93
2023/01/30 12:22:48;;;;;;;18.65;2.42;;;11.10;99.90;;;;;;5029587;28;20044;-92
2023/01/30 12:25:25;;;;;;;13.18;2.60;;;11.50;99.50;;;;;;5037518;28;20047;-91
2023/01/30 12:27:56;;;;;;;19.75;2.58;;;11.90;98.20;;;;;;5035310;28;20032;-91
2023/01/30 12:30:50;;;;;;;24.13;2.95;;;12.10;96.60;;;;;;5035151;28;20111;-90
2023/01/30 12:33:16;;;;;;;18.77;2.85;;;12.20;95.50;;;;;;5035267;28;20033;-91
2023/01/30 12:36:19;;;;;;;15.93;2.88;;;12.40;94.10;;;;;;5034816;28;20119;-89
2023/01/30 12:39:18;;;;;;;18.73;3.13;;;12.60;93.10;;;;;;5034728;28;20087;-93
2023/01/30 12:42:07;;;;;;;22.73;3.05;;;12.70;92.30;;;;;;5038103;28;20017;-92
2023/01/30 12:44:52;;;;;;;30.95;3.88;;;12.70;91.80;;;;;;5028832;28;20033;-91
2023/01/30 12:47:38;;;;;;;19.75;3.13;;;12.80;91.90;;;;;;5024915;28;20021;-93
2023/01/30 12:50:03;;;;;;;19.13;2.88;;;12.80;91.30;;;;;;5039116;28;20127;-93
2023/01/30 12:52:52;;;;;;;19.77;3.58;;;12.80;91.00;;;;;;5033949;28;20049;-93
2023/01/30 12:55:27;;;;;;;12.13;3.28;;;12.80;90.50;;;;;;5033055;28;20025;-93
2023/01/30 12:58:10;;;;;;;16.02;2.95;;;12.80;90.00;;;;;;5026402;28;20021;-92
2023/01/30 13:01:05;;;;;;;20.77;2.83;;;12.80;89.30;;;;;;5038727;28;20071;-92
2023/01/30 13:03:42;;;;;;;18.05;2.97;;;12.90;88.80;;;;;;5004867;28;20057;-92
2023/01/30 13:06:26;;;;;;;21.13;3.97;;;13.10;88.60;;;;;;5037958;28;20025;-92
2023/01/30 13:09:17;;;;;;;18.48;2.90;;;13.40;88.10;;;;;;5029663;28;20038;-91
2023/01/30 13:12:23;;;;;;;18.50;3.25;;;13.40;87.20;;;;;;5036087;28;20021;-91